createdAt,value
2022-11-05T00:00:06.052Z,4.60
2022-11-05T00:02:51.639Z,4.80
2022-11-05T00:05:37.208Z,4.60
2022-11-05T00:08:23.992Z,4.50
2022-11-05T00:10:51.044Z,4.50
2022-11-05T00:13:36.671Z,4.83
2022-11-05T00:16:22.482Z,4.00
2022-11-05T00:19:06.614Z,4.50
2022-11-05T00:21:53.698Z,4.03
2022-11-05T00:24:39.888Z,3.93
2022-11-05T00:27:07.258Z,3.90
2022-11-05T00:29:34.360Z,3.97
2022-11-05T00:32:01.897Z,4.27
2022-11-05T00:34:28.849Z,3.50
2022-11-05T00:36:56.360Z,3.90
2022-11-05T00:39:23.290Z,4.63
2022-11-05T00:42:10.168Z,5.17
2022-11-05T00:44:55.539Z,4.07
2022-11-05T00:47:41.147Z,4.00
2022-11-05T00:50:10.703Z,4.97
2022-11-05T00:52:56.936Z,3.93
2022-11-05T00:55:25.618Z,4.20
2022-11-05T00:57:52.770Z,4.17
2022-11-05T01:00:20.170Z,3.73
2022-11-05T01:02:47.478Z,4.27
2022-11-05T01:05:14.529Z,3.90
2022-11-05T01:07:41.554Z,4.77
2022-11-05T01:10:09.222Z,3.53
2022-11-05T01:12:36.590Z,4.10
2022-11-05T01:15:04.096Z,4.10
2022-11-05T01:17:31.062Z,4.63
2022-11-05T01:19:58.060Z,5.23
2022-11-05T01:22:24.989Z,3.60
2022-11-05T01:24:52.027Z,3.43
2022-11-05T01:27:18.982Z,3.73
2022-11-05T01:29:45.982Z,3.80
2022-11-05T01:32:12.951Z,3.27
2022-11-05T01:34:39.949Z,4.43
2022-11-05T01:37:06.904Z,4.17
2022-11-05T01:39:33.872Z,3.93
2022-11-05T01:42:00.867Z,3.90
2022-11-05T01:44:54.501Z,4.23
2022-11-05T01:47:57.906Z,4.40
2022-11-05T01:50:39.369Z,4.43
2022-11-05T01:53:20.350Z,4.87
2022-11-05T01:55:54.616Z,4.20
2022-11-05T01:58:23.911Z,4.30
2022-11-05T02:00:51.172Z,4.13
2022-11-05T02:03:19.299Z,4.23
2022-11-05T02:05:48.304Z,6.17
2022-11-05T02:08:48.358Z,5.03
2022-11-05T02:11:18.447Z,4.30
2022-11-05T02:13:46.112Z,4.30
2022-11-05T02:16:46.293Z,4.07
2022-11-05T02:19:40.415Z,4.67
2022-11-05T02:22:10.378Z,4.30
2022-11-05T02:25:08.431Z,4.60
2022-11-05T02:27:49.354Z,4.53
2022-11-05T02:30:37.949Z,4.80
2022-11-05T02:33:30.890Z,4.17
2022-11-05T02:36:24.524Z,5.13
2022-11-05T02:39:14.642Z,4.93
2022-11-05T02:42:04.701Z,5.27
2022-11-05T02:45:01.258Z,4.80
2022-11-05T02:47:36.172Z,5.57
2022-11-05T02:50:33.666Z,5.80
2022-11-05T02:53:23.542Z,5.10
2022-11-05T02:55:59.419Z,4.00
2022-11-05T02:58:30.551Z,4.20
2022-11-05T03:01:02.166Z,4.13
2022-11-05T03:03:37.512Z,4.63
2022-11-05T03:06:23.370Z,3.50
2022-11-05T03:09:14.497Z,4.30
2022-11-05T03:11:57.635Z,4.53
2022-11-05T03:14:53.887Z,4.40
2022-11-05T03:17:26.940Z,4.70
2022-11-05T03:19:59.666Z,4.20
2022-11-05T03:22:31.400Z,5.83
2022-11-05T03:25:03.574Z,3.60
2022-11-05T03:27:34.588Z,4.10
2022-11-05T03:30:06.383Z,4.57
2022-11-05T03:32:37.751Z,4.87
2022-11-05T03:35:10.581Z,4.20
2022-11-05T03:37:41.675Z,4.23
2022-11-05T03:40:12.215Z,5.17
2022-11-05T03:42:43.920Z,4.03
2022-11-05T03:45:21.393Z,5.13
2022-11-05T03:47:52.011Z,5.63
2022-11-05T03:50:22.086Z,4.10
2022-11-05T03:53:11.194Z,4.97
2022-11-05T03:56:11.438Z,5.77
2022-11-05T03:58:42.970Z,4.60
2022-11-05T04:01:10.568Z,4.80
2022-11-05T04:03:37.483Z,4.33
2022-11-05T04:06:28.300Z,4.13
2022-11-05T04:09:14.010Z,4.77
2022-11-05T04:11:59.817Z,4.13
2022-11-05T04:14:27.003Z,3.70
2022-11-05T04:17:09.850Z,3.80
2022-11-05T04:19:58.150Z,4.40
2022-11-05T04:22:45.766Z,3.83
2022-11-05T04:25:14.304Z,4.23
2022-11-05T04:27:41.590Z,4.83
2022-11-05T04:30:18.596Z,4.33
2022-11-05T04:33:08.353Z,4.63
2022-11-05T04:35:39.864Z,4.23
2022-11-05T04:38:09.703Z,4.63
2022-11-05T04:40:37.196Z,4.90
2022-11-05T04:43:04.833Z,4.30
2022-11-05T04:45:35.861Z,4.73
2022-11-05T04:48:03.889Z,3.90
2022-11-05T04:50:31.762Z,4.23
2022-11-05T04:52:59.326Z,3.60
2022-11-05T04:55:26.814Z,4.10
2022-11-05T04:57:54.508Z,3.93
2022-11-05T05:00:22.941Z,3.93
2022-11-05T05:02:50.377Z,4.50
2022-11-05T05:05:17.412Z,3.97
2022-11-05T05:07:44.563Z,4.17
2022-11-05T05:10:11.926Z,4.70
2022-11-05T05:12:39.109Z,4.03
2022-11-05T05:15:06.553Z,3.60
2022-11-05T05:17:33.528Z,4.10
2022-11-05T05:20:19.046Z,4.43
2022-11-05T05:22:53.056Z,4.77
2022-11-05T05:25:20.095Z,4.97
2022-11-05T05:27:47.266Z,4.93
2022-11-05T05:30:14.222Z,4.03
2022-11-05T05:32:41.276Z,4.87
2022-11-05T05:35:08.741Z,4.50
2022-11-05T05:37:35.674Z,4.67
2022-11-05T05:40:02.754Z,4.77
2022-11-05T05:42:29.682Z,4.20
2022-11-05T05:44:56.668Z,4.20
2022-11-05T05:47:23.725Z,4.27
2022-11-05T05:49:50.715Z,4.23
2022-11-05T05:52:17.670Z,3.90
2022-11-05T05:54:44.740Z,4.60
2022-11-05T05:57:11.737Z,4.60
2022-11-05T05:59:38.755Z,4.50
2022-11-05T06:02:05.937Z,4.40
2022-11-05T06:04:32.954Z,4.13
2022-11-05T06:06:59.887Z,4.10
2022-11-05T06:09:26.847Z,5.90
2022-11-05T06:11:53.805Z,4.50
2022-11-05T06:14:20.835Z,4.13
2022-11-05T06:16:47.941Z,4.40
2022-11-05T06:19:14.893Z,4.37
2022-11-05T06:21:42.020Z,4.53
2022-11-05T06:24:09.240Z,4.87
2022-11-05T06:26:42.445Z,4.47
2022-11-05T06:29:13.367Z,4.47
2022-11-05T06:31:40.559Z,5.40
2022-11-05T06:34:07.637Z,4.97
2022-11-05T06:36:34.650Z,4.07
2022-11-05T06:39:01.616Z,4.33
2022-11-05T06:41:28.525Z,3.97
2022-11-05T06:43:55.452Z,4.30
2022-11-05T06:46:22.370Z,4.97
2022-11-05T06:48:49.386Z,5.77
2022-11-05T06:51:16.333Z,5.03
2022-11-05T06:53:43.345Z,5.33
2022-11-05T06:56:10.474Z,4.73
2022-11-05T06:58:37.706Z,4.10
2022-11-05T07:01:08.566Z,4.47
2022-11-05T07:03:39.330Z,5.20
2022-11-05T07:06:07.538Z,4.63
2022-11-05T07:08:36.008Z,4.67
2022-11-05T07:11:03.446Z,3.90
2022-11-05T07:13:30.452Z,4.37
2022-11-05T07:15:57.803Z,4.63
2022-11-05T07:18:25.084Z,3.73
2022-11-05T07:20:52.039Z,4.30
2022-11-05T07:23:19.250Z,3.93
2022-11-05T07:25:46.248Z,4.47
2022-11-05T07:28:14.616Z,4.20
2022-11-05T07:30:41.988Z,4.27
2022-11-05T07:33:09.616Z,4.40
2022-11-05T07:35:36.878Z,3.50
2022-11-05T07:38:03.843Z,4.63
2022-11-05T07:40:31.014Z,4.30
2022-11-05T07:43:00.828Z,3.90
2022-11-05T07:45:29.554Z,4.27
2022-11-05T07:48:01.529Z,4.33
2022-11-05T07:50:34.231Z,3.53
2022-11-05T07:53:03.654Z,4.07
2022-11-05T07:55:31.326Z,3.77
2022-11-05T07:57:58.792Z,3.87
2022-11-05T08:00:26.845Z,3.70
2022-11-05T08:03:08.696Z,3.23
2022-11-05T08:05:38.484Z,4.03
2022-11-05T08:08:07.576Z,5.73
2022-11-05T08:10:35.497Z,4.07
2022-11-05T08:13:02.829Z,4.30
2022-11-05T08:15:29.785Z,3.17
2022-11-05T08:18:01.331Z,3.70
2022-11-05T08:20:28.412Z,3.40
2022-11-05T08:22:56.049Z,4.17
2022-11-05T08:25:23.238Z,3.13
2022-11-05T08:27:58.129Z,3.10
2022-11-05T08:30:25.965Z,3.47
2022-11-05T08:32:57.518Z,2.83
2022-11-05T08:35:24.712Z,4.00
2022-11-05T08:37:55.483Z,2.43
2022-11-05T08:40:22.421Z,3.00
2022-11-05T08:42:49.394Z,3.20
2022-11-05T08:45:16.454Z,2.47
2022-11-05T08:47:43.402Z,2.40
2022-11-05T08:50:10.506Z,2.50
2022-11-05T08:52:40.973Z,2.83
2022-11-05T08:55:08.489Z,2.67
2022-11-05T08:57:35.462Z,2.90
2022-11-05T09:00:02.575Z,2.13
2022-11-05T09:02:29.729Z,2.30
2022-11-05T09:04:56.751Z,2.30
2022-11-05T09:07:23.736Z,2.53
2022-11-05T09:09:50.712Z,2.40
2022-11-05T09:12:17.810Z,2.80
2022-11-05T09:14:44.753Z,2.67
2022-11-05T09:17:20.507Z,2.27
2022-11-05T09:19:47.666Z,2.47
2022-11-05T09:22:15.173Z,2.40
2022-11-05T09:24:43.358Z,2.37
2022-11-05T09:27:11.987Z,2.00
2022-11-05T09:29:39.838Z,2.10
2022-11-05T09:32:06.797Z,2.50
2022-11-05T09:34:34.074Z,2.60
2022-11-05T09:37:01.133Z,2.00
2022-11-05T09:39:28.124Z,2.33
2022-11-05T09:41:59.975Z,2.70
2022-11-05T09:44:48.516Z,3.07
2022-11-05T09:47:52.162Z,2.23
2022-11-05T09:50:33.791Z,2.43
2022-11-05T09:53:01.853Z,2.00
2022-11-05T09:55:48.859Z,2.10
2022-11-05T09:58:43.747Z,2.20
2022-11-05T10:01:21.582Z,2.60
2022-11-05T10:03:52.208Z,1.83
2022-11-05T10:06:25.154Z,2.40
2022-11-05T10:09:01.595Z,2.17
2022-11-05T10:11:47.908Z,1.90
2022-11-05T10:14:24.669Z,1.90
2022-11-05T10:17:17.843Z,2.40
2022-11-05T10:19:54.555Z,1.83
2022-11-05T10:22:21.516Z,2.10
2022-11-05T10:24:50.339Z,1.90
2022-11-05T10:27:31.221Z,2.10
2022-11-05T10:29:58.647Z,1.97
2022-11-05T10:32:30.138Z,2.50
2022-11-05T10:34:59.998Z,2.13
2022-11-05T10:37:27.967Z,2.70
2022-11-05T10:39:55.454Z,1.97
2022-11-05T10:42:25.222Z,1.73
2022-11-05T10:45:10.755Z,2.00
2022-11-05T10:47:43.259Z,2.13
2022-11-05T10:50:13.833Z,1.83
2022-11-05T10:53:17.495Z,1.87
2022-11-05T10:55:48.016Z,2.23
2022-11-05T10:58:17.942Z,3.40
2022-11-05T11:01:07.801Z,2.13
2022-11-05T11:03:48.905Z,2.00
2022-11-05T11:06:34.674Z,1.97
2022-11-05T11:09:05.268Z,2.20
2022-11-05T11:11:33.650Z,2.00
2022-11-05T11:14:05.336Z,2.20
2022-11-05T11:16:37.075Z,2.03
2022-11-05T11:19:20.680Z,2.23
2022-11-05T11:22:09.260Z,2.47
2022-11-05T11:24:43.983Z,1.67
2022-11-05T11:27:26.992Z,2.27
2022-11-05T11:30:02.369Z,2.73
2022-11-05T11:32:40.092Z,2.20
2022-11-05T11:35:18.609Z,2.53
2022-11-05T11:37:47.311Z,2.20
2022-11-05T11:40:25.758Z,2.10
2022-11-05T11:42:57.023Z,3.07
2022-11-05T11:45:46.834Z,2.43
2022-11-05T11:48:24.830Z,2.80
2022-11-05T11:50:52.403Z,2.40
2022-11-05T11:53:22.148Z,2.60
2022-11-05T11:55:55.252Z,2.30
2022-11-05T11:58:37.814Z,2.57
2022-11-05T12:01:20.848Z,2.40
2022-11-05T12:04:06.370Z,3.10
2022-11-05T12:06:39.515Z,2.10
2022-11-05T12:09:17.752Z,1.90
2022-11-05T12:11:53.755Z,2.13
2022-11-05T12:14:32.989Z,3.17
2022-11-05T12:17:12.080Z,3.13
2022-11-05T12:19:59.369Z,2.30
2022-11-05T12:22:58.963Z,2.67
2022-11-05T12:25:35.982Z,2.90
2022-11-05T12:29:04.676Z,3.87
2022-11-05T12:31:28.756Z,2.60
2022-11-05T12:34:17.426Z,2.70
2022-11-05T12:37:11.818Z,2.63
2022-11-05T12:39:57.276Z,4.13
2022-11-05T12:42:32.934Z,3.30
2022-11-05T12:45:23.715Z,2.30
2022-11-05T12:48:28.257Z,2.60
2022-11-05T12:51:09.990Z,2.83
2022-11-05T12:54:03.937Z,2.13
2022-11-05T12:56:41.700Z,2.63
2022-11-05T12:59:14.706Z,2.00
2022-11-05T13:01:48.946Z,2.30
2022-11-05T13:04:41.631Z,2.80
2022-11-05T13:07:12.006Z,2.03
2022-11-05T13:09:43.059Z,2.70
2022-11-05T13:12:22.721Z,2.27
2022-11-05T13:15:17.774Z,2.13
2022-11-05T13:17:59.896Z,2.50
2022-11-05T13:20:33.065Z,2.50
2022-11-05T13:23:14.871Z,2.03
2022-11-05T13:25:48.302Z,2.60
2022-11-05T13:28:24.118Z,2.60
2022-11-05T13:30:56.043Z,2.17
2022-11-05T13:33:28.186Z,2.30
2022-11-05T13:36:46.948Z,2.57
2022-11-05T13:39:29.187Z,1.90
2022-11-05T13:42:14.183Z,2.30
2022-11-05T13:45:14.369Z,2.27
2022-11-05T13:48:05.494Z,2.50
2022-11-05T13:50:59.983Z,2.53
2022-11-05T13:53:42.763Z,2.47
2022-11-05T13:56:32.731Z,2.43
2022-11-05T13:59:21.457Z,2.30
2022-11-05T14:02:00.218Z,2.40
2022-11-05T14:04:38.519Z,2.77
2022-11-05T14:07:25.810Z,2.47
2022-11-05T14:10:15.835Z,2.70
2022-11-05T14:12:49.242Z,2.60
2022-11-05T14:15:18.775Z,2.33
2022-11-05T14:17:56.538Z,2.57
2022-11-05T14:20:57.478Z,2.50
2022-11-05T14:23:24.357Z,2.90
2022-11-05T14:25:51.460Z,2.53
2022-11-05T14:28:43.965Z,2.50
2022-11-05T14:34:54.028Z,2.63
2022-11-05T14:37:46.950Z,2.87
2022-11-05T14:40:26.132Z,3.07
2022-11-05T14:42:56.042Z,2.93
2022-11-05T14:45:30.601Z,2.83
2022-11-05T14:48:02.936Z,3.00
2022-11-05T14:50:43.011Z,3.50
2022-11-05T14:53:31.238Z,3.27
2022-11-05T14:56:04.769Z,3.33
2022-11-05T14:58:37.161Z,2.90
2022-11-05T15:01:26.039Z,3.30
2022-11-05T15:04:17.369Z,3.30
2022-11-05T15:07:02.551Z,3.63
2022-11-05T15:09:52.021Z,3.67
2022-11-05T15:12:22.529Z,2.80
2022-11-05T15:15:18.690Z,3.73
2022-11-05T15:18:13.991Z,3.40
2022-11-05T15:20:45.108Z,3.73
2022-11-05T15:23:16.693Z,3.70
2022-11-05T15:25:54.778Z,2.93
2022-11-05T15:28:54.759Z,4.00
2022-11-05T15:31:36.196Z,3.63
2022-11-05T15:34:30.951Z,5.27
2022-11-05T15:37:20.146Z,4.70
2022-11-05T15:39:48.744Z,4.43
2022-11-05T15:42:22.953Z,5.00
2022-11-05T15:44:55.125Z,4.37
2022-11-05T15:47:23.749Z,4.77
2022-11-05T15:49:57.943Z,4.17
2022-11-05T15:52:34.771Z,4.03
2022-11-05T15:55:13.925Z,4.40
2022-11-05T15:57:51.258Z,5.20
2022-11-05T16:00:24.292Z,3.90
2022-11-05T16:02:56.064Z,4.90
2022-11-05T16:05:25.982Z,4.17
2022-11-05T16:07:53.348Z,5.20
2022-11-05T16:10:30.728Z,5.73
2022-11-05T16:12:57.937Z,5.87
2022-11-05T16:15:29.526Z,5.33
2022-11-05T16:17:59.586Z,5.53
2022-11-05T16:20:38.406Z,6.77
2022-11-05T16:23:08.380Z,5.93
2022-11-05T16:25:42.502Z,6.63
2022-11-05T16:28:30.225Z,6.77
2022-11-05T16:31:02.609Z,5.77
2022-11-05T16:33:43.978Z,6.20
2022-11-05T16:36:11.678Z,6.97
2022-11-05T16:38:38.919Z,6.33
2022-11-05T16:41:06.102Z,6.77
2022-11-05T16:43:33.577Z,6.83
2022-11-05T16:46:01.905Z,6.00
2022-11-05T16:48:28.918Z,9.80
2022-11-05T16:50:55.888Z,7.50
2022-11-05T16:53:23.075Z,7.63
2022-11-05T16:55:50.074Z,7.20
2022-11-05T16:58:26.720Z,6.63
2022-11-05T17:01:04.281Z,5.73
2022-11-05T17:03:31.572Z,5.03
2022-11-05T17:05:58.719Z,4.67
2022-11-05T17:08:25.769Z,4.90
2022-11-05T17:10:52.826Z,5.40
2022-11-05T17:13:20.562Z,5.30
2022-11-05T17:15:49.383Z,6.17
2022-11-05T17:18:18.967Z,5.13
2022-11-05T17:20:54.743Z,5.33
2022-11-05T17:23:24.154Z,4.73
2022-11-05T17:25:54.438Z,4.93
2022-11-05T17:28:21.917Z,5.30
2022-11-05T17:30:52.772Z,5.03
2022-11-05T17:33:21.804Z,4.77
2022-11-05T17:35:49.273Z,8.00
2022-11-05T17:38:16.414Z,4.87
2022-11-05T17:40:43.357Z,12.17
2022-11-05T17:43:11.380Z,11.20
2022-11-05T17:45:44.325Z,7.57
2022-11-05T17:48:11.811Z,11.27
2022-11-05T17:50:43.805Z,10.60
2022-11-05T17:53:12.097Z,7.83
2022-11-05T17:55:44.339Z,14.30
2022-11-05T17:58:12.402Z,7.97
2022-11-05T18:00:40.442Z,4.97
2022-11-05T18:03:07.492Z,4.33
2022-11-05T18:05:35.005Z,3.73
2022-11-05T18:08:02.291Z,10.00
2022-11-05T18:10:29.411Z,9.03
2022-11-05T18:12:56.380Z,8.03
2022-11-05T18:15:23.654Z,7.40
2022-11-05T18:17:50.778Z,5.33
2022-11-05T18:20:19.430Z,3.70
2022-11-05T18:22:49.615Z,3.77
2022-11-05T18:25:17.567Z,3.90
2022-11-05T18:27:45.153Z,4.13
2022-11-05T18:30:15.473Z,3.60
2022-11-05T18:32:43.934Z,3.93
2022-11-05T18:35:11.570Z,3.00
2022-11-05T18:37:39.089Z,5.83
2022-11-05T18:40:07.306Z,13.43
2022-11-05T18:42:34.322Z,14.23
2022-11-05T18:45:01.295Z,6.33
2022-11-05T18:47:28.324Z,3.30
2022-11-05T18:49:55.268Z,6.23
2022-11-05T18:52:22.214Z,9.50
2022-11-05T18:54:49.184Z,6.77
2022-11-05T18:57:16.119Z,5.37
2022-11-05T18:59:46.734Z,4.47
2022-11-05T19:02:14.675Z,6.37
2022-11-05T19:04:55.293Z,5.80
2022-11-05T19:07:29.475Z,6.20
2022-11-05T19:09:56.489Z,5.70
2022-11-05T19:12:23.416Z,6.77
2022-11-05T19:14:50.419Z,12.47
2022-11-05T19:17:17.405Z,20.20
2022-11-05T19:19:44.356Z,11.97
2022-11-05T19:22:11.503Z,9.70
2022-11-05T19:24:38.428Z,14.67
2022-11-05T19:27:05.405Z,4.97
2022-11-05T19:29:32.441Z,8.10
2022-11-05T19:31:59.395Z,9.40
2022-11-05T19:34:26.458Z,5.77
2022-11-05T19:36:53.461Z,5.93
2022-11-05T19:39:20.447Z,6.97
2022-11-05T19:41:49.147Z,4.57
2022-11-05T19:44:16.173Z,5.97
2022-11-05T19:46:44.032Z,4.10
2022-11-05T19:49:11.683Z,4.60
2022-11-05T19:51:39.607Z,5.30
2022-11-05T19:54:06.695Z,4.60
2022-11-05T19:56:35.075Z,5.30
2022-11-05T19:59:03.470Z,5.50
2022-11-05T20:01:31.566Z,4.93
2022-11-05T20:03:59.546Z,5.07
2022-11-05T20:06:31.949Z,5.03
2022-11-05T20:11:49.862Z,9.57
2022-11-05T20:14:17.207Z,7.80
2022-11-05T20:16:46.418Z,12.83
2022-11-05T20:19:15.818Z,9.03
2022-11-05T20:21:43.072Z,12.27
2022-11-05T20:24:13.200Z,10.83
2022-11-05T20:26:40.449Z,7.03
2022-11-05T20:29:07.801Z,7.33
2022-11-05T20:31:34.778Z,10.80
2022-11-05T20:34:01.893Z,7.07
2022-11-05T20:36:28.855Z,7.47
2022-11-05T20:38:58.197Z,8.33
2022-11-05T20:41:26.184Z,6.70
2022-11-05T20:43:54.024Z,7.60
2022-11-05T20:46:22.184Z,28.60
2022-11-05T20:48:49.497Z,6.83
2022-11-05T20:51:19.137Z,24.97
2022-11-05T20:53:46.489Z,12.73
2022-11-05T20:56:22.788Z,14.93
2022-11-05T20:58:50.665Z,10.37
2022-11-05T21:01:18.768Z,12.37
2022-11-05T21:03:47.129Z,21.00
2022-11-05T21:06:14.836Z,12.57
2022-11-05T21:08:42.101Z,16.80
2022-11-05T21:11:10.202Z,10.60
2022-11-05T21:13:37.838Z,10.03
2022-11-05T21:16:07.343Z,8.60
2022-11-05T21:18:36.040Z,7.27
2022-11-05T21:21:13.320Z,7.20
2022-11-05T21:23:41.796Z,7.30
2022-11-05T21:26:11.936Z,7.77
2022-11-05T21:28:40.355Z,6.73
2022-11-05T21:31:07.715Z,5.77
2022-11-05T21:33:34.751Z,6.87
2022-11-05T21:36:07.682Z,5.93
2022-11-05T21:38:34.675Z,6.07
2022-11-05T21:41:05.108Z,6.63
2022-11-05T21:43:32.565Z,5.67
2022-11-05T21:46:04.290Z,6.33
2022-11-05T21:48:31.860Z,6.20
2022-11-05T21:51:17.556Z,5.47
2022-11-05T21:54:03.174Z,6.70
2022-11-05T21:56:49.500Z,6.03
2022-11-05T21:59:37.488Z,7.43
2022-11-05T22:02:05.131Z,15.60
2022-11-05T22:04:34.813Z,10.93
2022-11-05T22:07:02.585Z,18.77
2022-11-05T22:09:29.897Z,11.20
2022-11-05T22:11:57.254Z,8.27
2022-11-05T22:14:24.786Z,8.83
2022-11-05T22:16:52.076Z,12.57
2022-11-05T22:19:19.935Z,16.57
2022-11-05T22:21:46.974Z,9.27
2022-11-05T22:24:14.189Z,9.97
2022-11-05T22:26:41.999Z,8.13
2022-11-05T22:29:09.657Z,5.63
2022-11-05T22:31:36.994Z,6.63
2022-11-05T22:34:06.014Z,6.47
2022-11-05T22:36:34.665Z,5.23
2022-11-05T22:39:02.385Z,6.20
2022-11-05T22:41:29.714Z,6.23
2022-11-05T22:43:56.976Z,5.07
2022-11-05T22:46:26.414Z,5.40
2022-11-05T22:48:54.129Z,6.10
2022-11-05T22:51:23.873Z,5.50
2022-11-05T22:53:51.017Z,5.50
2022-11-05T22:56:20.519Z,6.17
2022-11-05T22:58:48.166Z,6.27
2022-11-05T23:01:16.082Z,6.23
2022-11-05T23:03:45.187Z,8.37
2022-11-05T23:06:36.569Z,9.40
2022-11-05T23:09:25.401Z,9.87
2022-11-05T23:11:54.013Z,7.30
2022-11-05T23:14:21.069Z,14.67
2022-11-05T23:17:06.687Z,13.63
2022-11-05T23:19:52.403Z,8.23
2022-11-05T23:22:44.390Z,7.47
2022-11-05T23:25:14.666Z,13.23
2022-11-05T23:27:41.798Z,10.83
2022-11-05T23:30:15.718Z,7.20
2022-11-05T23:32:42.657Z,5.67
2022-11-05T23:35:10.144Z,5.80
2022-11-05T23:37:55.989Z,4.90
2022-11-05T23:40:29.748Z,5.33
2022-11-05T23:43:35.914Z,5.77
2022-11-05T23:46:21.556Z,5.73
2022-11-05T23:48:48.571Z,5.20
2022-11-05T23:51:15.558Z,5.30
2022-11-05T23:53:42.510Z,5.30
2022-11-05T23:56:12.528Z,4.83
2022-11-05T23:58:41.183Z,5.60
